ADDS METAR Data INFO
IDs: Format: Raw Decoded Include TAF

Data at: 1745 UTC 15 Dec 2017

METAR for:KTPA (Tampa Intl Arpt, FL, US)
Text:KTPA 151653Z 19009KT 10SM SCT035 BKN055 23/17 A3010 RMK AO2 SLP192 T02280172
Temperature: 22.8°C ( 73°F)
Dewpoint: 17.2°C ( 63°F) [RH = 71%]
Pressure (altimeter):30.10 inches Hg (1019.4 mb) [Sea level pressure: 1019.2 mb]
Winds:from the S (190 degrees) at 10 MPH (9 knots; 4.6 m/s)
Visibility:10 or more sm (16+ km)
Ceiling:5500 feet AGL
Clouds: scattered clouds at 3500 feet AGL, broken clouds at 5500 feet AGL